Terminal Aerodrome Forecast
Issued by NWS

Home | Current Version | Previous Version | Text Only | Print | Product List | Glossary Off
Versions: 1 2 3 4 5 6 7 8 9 10 11 12 13 14 15 16 17 18 19 20 21 22 23 24

854
FTUS42 KMHX 291120
TAFOAJ
TAF
KOAJ 291120Z 2912/3012 06005KT 6SM SHRA OVC007
     FM291400 09008KT 6SM SHRA OVC020
     FM291900 12007KT 5SM SHRA SCT015 OVC035
     FM300600 07003KT 5SM SHRA OVC007
      AMD LTD TO CLD VIS AND WIND=

USA.gov is the U.S. government's official web portal to all federal, state and local government web resources and services.